createdAt,value
2016-06-26T00:00:16.437Z,24.5
2016-06-26T00:01:16.467Z,24.54
2016-06-26T00:02:15.891Z,24.57
2016-06-26T00:03:15.898Z,24.53
2016-06-26T00:04:15.941Z,24.5
2016-06-26T00:05:16.570Z,24.47
2016-06-26T00:06:15.370Z,24.45
2016-06-26T00:07:16.029Z,24.51
2016-06-26T00:08:16.662Z,24.47
2016-06-26T00:09:16.701Z,24.42
2016-06-26T00:10:16.714Z,24.45
2016-06-26T00:11:16.138Z,24.43
2016-06-26T00:12:16.170Z,24.5
2016-06-26T00:13:16.198Z,24.51
2016-06-26T00:14:16.226Z,24.39
2016-06-26T00:15:15.641Z,24.39
2016-06-26T00:16:15.669Z,24.39
2016-06-26T00:17:16.305Z,24.36
2016-06-26T00:18:16.967Z,24.39
2016-06-26T00:19:16.977Z,24.39
2016-06-26T00:20:17.027Z,24.3
2016-06-26T00:21:15.813Z,24.33
2016-06-26T00:22:17.083Z,24.36
2016-06-26T00:23:17.108Z,24.3
2016-06-26T00:24:17.136Z,24.3
2016-06-26T00:25:16.544Z,24.33
2016-06-26T00:26:16.586Z,24.26
2016-06-26T00:27:17.234Z,24.24
2016-06-26T00:28:16.648Z,24.2
2016-06-26T00:29:16.037Z,24.17
2016-06-26T00:30:17.308Z,24.14
2016-06-26T00:31:16.714Z,23.98
2016-06-26T00:32:16.734Z,24.06
2016-06-26T00:33:17.410Z,24.11
2016-06-26T00:34:16.194Z,24.02
2016-06-26T00:35:16.830Z,23.99
2016-06-26T00:36:17.486Z,23.92
2016-06-26T00:37:16.270Z,23.95
2016-06-26T00:38:16.943Z,23.84
2016-06-26T00:39:17.570Z,23.91
2016-06-26T00:40:16.986Z,23.84
2016-06-26T00:41:17.017Z,23.74
2016-06-26T00:42:17.657Z,23.8
2016-06-26T00:43:17.074Z,23.78
2016-06-26T00:44:16.491Z,23.77
2016-06-26T00:45:17.752Z,23.76
2016-06-26T00:46:17.776Z,23.74
2016-06-26T00:47:17.180Z,23.73
2016-06-26T00:48:17.234Z,23.68
2016-06-26T00:49:17.258Z,23.74
2016-06-26T00:50:17.911Z,23.66
2016-06-26T00:51:16.686Z,23.71
2016-06-26T00:52:16.703Z,23.73
2016-06-26T00:53:17.361Z,23.66
2016-06-26T00:54:16.796Z,23.66
2016-06-26T00:55:18.030Z,23.61
2016-06-26T00:56:17.446Z,23.61
2016-06-26T00:57:18.071Z,23.61
2016-06-26T00:58:18.126Z,23.56
2016-06-26T00:59:17.543Z,23.54
2016-06-26T01:00:17.578Z,23.59
2016-06-26T01:01:16.977Z,23.54
2016-06-26T01:02:17.005Z,23.55
2016-06-26T01:03:17.033Z,23.51
2016-06-26T01:04:17.683Z,23.48
2016-06-26T01:05:18.312Z,23.54
2016-06-26T01:06:17.733Z,23.44
2016-06-26T01:07:17.773Z,23.44
2016-06-26T01:08:17.810Z,23.47
2016-06-26T01:09:18.435Z,23.43
2016-06-26T01:10:18.474Z,23.46
2016-06-26T01:11:18.497Z,23.46
2016-06-26T01:12:17.897Z,23.47
2016-06-26T01:13:17.947Z,23.5
2016-06-26T01:14:18.578Z,23.5
2016-06-26T01:15:17.988Z,23.41
2016-06-26T01:16:17.399Z,23.44
2016-06-26T01:17:18.678Z,23.41
2016-06-26T01:18:17.463Z,23.36
2016-06-26T01:19:17.493Z,23.32
2016-06-26T01:20:18.762Z,23.41
2016-06-26T01:21:18.165Z,23.39
2016-06-26T01:22:18.183Z,23.37
2016-06-26T01:23:18.242Z,23.36
2016-06-26T01:24:18.860Z,23.32
2016-06-26T01:25:17.661Z,23.2
2016-06-26T01:26:18.308Z,23.31
2016-06-26T01:27:18.340Z,23.36
2016-06-26T01:28:18.358Z,23.25
2016-06-26T01:29:18.385Z,23.21
2016-06-26T01:30:18.416Z,23.18
2016-06-26T01:31:18.462Z,23.27
2016-06-26T01:32:19.118Z,23.25
2016-06-26T01:33:18.507Z,23.24
2016-06-26T01:34:17.919Z,23.23
2016-06-26T01:35:18.567Z,23.23
2016-06-26T01:36:17.986Z,23.2
2016-06-26T01:37:19.229Z,23.15
2016-06-26T01:38:18.644Z,23.24
2016-06-26T01:39:19.299Z,23.23
2016-06-26T01:40:18.087Z,23.17
2016-06-26T01:41:18.106Z,23.1
2016-06-26T01:42:18.764Z,23.03
2016-06-26T01:43:19.402Z,23.09
2016-06-26T01:44:19.430Z,23.2
2016-06-26T01:45:18.228Z,23.13
2016-06-26T01:46:18.256Z,23.09
2016-06-26T01:47:18.274Z,23.09
2016-06-26T01:48:18.311Z,22.98
2016-06-26T01:49:19.574Z,22.96
2016-06-26T01:50:19.602Z,23.08
2016-06-26T01:51:19.626Z,22.99
2016-06-26T01:52:19.035Z,22.99
2016-06-26T01:53:18.455Z,23.02
2016-06-26T01:54:19.722Z,22.96
2016-06-26T01:55:19.760Z,22.98
2016-06-26T01:56:18.529Z,22.98
2016-06-26T01:57:18.578Z,22.98
2016-06-26T01:58:19.213Z,22.96
2016-06-26T01:59:19.886Z,22.94
2016-06-26T02:00:19.889Z,22.96
2016-06-26T02:01:19.913Z,22.96
2016-06-26T02:02:18.709Z,22.94
2016-06-26T02:03:18.743Z,22.99
2016-06-26T02:04:19.376Z,23.05
2016-06-26T02:05:20.022Z,22.96
2016-06-26T02:06:19.434Z,22.99
2016-06-26T02:07:18.865Z,22.9
2016-06-26T02:08:18.871Z,22.93
2016-06-26T02:09:20.152Z,22.99
2016-06-26T02:10:20.174Z,22.91
2016-06-26T02:11:19.569Z,22.93
2016-06-26T02:12:19.607Z,22.99
2016-06-26T02:13:19.640Z,22.98
2016-06-26T02:14:19.666Z,22.9
2016-06-26T02:15:19.687Z,22.9
2016-06-26T02:16:19.724Z,22.87
2016-06-26T02:17:20.363Z,22.85
2016-06-26T02:18:20.390Z,22.91
2016-06-26T02:19:20.427Z,22.9
2016-06-26T02:20:19.819Z,22.83
2016-06-26T02:21:19.847Z,22.87
2016-06-26T02:22:19.899Z,22.91
2016-06-26T02:23:20.533Z,22.85
2016-06-26T02:24:19.951Z,22.84
2016-06-26T02:25:20.582Z,22.84
2016-06-26T02:26:20.618Z,22.81
2016-06-26T02:27:20.641Z,22.75
2016-06-26T02:28:20.674Z,22.73
2016-06-26T02:29:20.691Z,22.83
2016-06-26T02:30:20.755Z,22.8
2016-06-26T02:31:20.751Z,22.78
2016-06-26T02:32:20.841Z,22.76
2016-06-26T02:33:20.818Z,22.69
2016-06-26T02:34:20.230Z,22.7
2016-06-26T02:35:20.862Z,22.69
2016-06-26T02:36:20.273Z,22.7
2016-06-26T02:37:20.316Z,22.68
2016-06-26T02:38:20.332Z,22.69
2016-06-26T02:39:20.368Z,22.62
2016-06-26T02:40:20.411Z,22.59
2016-06-26T02:41:20.449Z,22.68
2016-06-26T02:42:20.457Z,22.57
2016-06-26T02:43:20.479Z,22.6
2016-06-26T02:44:21.141Z,22.57
2016-06-26T02:45:21.145Z,22.53
2016-06-26T02:46:20.579Z,22.57
2016-06-26T02:47:19.967Z,22.47
2016-06-26T02:48:20.638Z,22.5
2016-06-26T02:49:20.642Z,22.47
2016-06-26T02:50:20.057Z,22.45
2016-06-26T02:51:21.315Z,22.45
2016-06-26T02:52:20.723Z,22.47
2016-06-26T02:53:21.363Z,22.6
2016-06-26T02:54:20.780Z,22.47
2016-06-26T02:55:20.200Z,22.48
2016-06-26T02:56:20.234Z,22.39
2016-06-26T02:57:21.489Z,22.51
2016-06-26T02:58:20.883Z,22.45
2016-06-26T02:59:21.560Z,22.38
2016-06-26T03:00:20.944Z,22.44
2016-06-26T03:01:20.367Z,22.5
2016-06-26T03:02:21.633Z,22.51
2016-06-26T03:03:21.037Z,22.5
2016-06-26T03:04:21.669Z,22.47
2016-06-26T03:05:21.704Z,22.39
2016-06-26T03:06:21.114Z,22.43
2016-06-26T03:07:21.167Z,22.41
2016-06-26T03:08:21.803Z,22.36
2016-06-26T03:09:21.237Z,22.36
2016-06-26T03:10:21.237Z,22.38
2016-06-26T03:11:21.261Z,22.35
2016-06-26T03:12:21.907Z,22.32
2016-06-26T03:13:21.302Z,22.39
2016-06-26T03:14:21.988Z,22.28
2016-06-26T03:15:20.745Z,22.29
2016-06-26T03:16:22.010Z,22.28
2016-06-26T03:17:21.412Z,22.26
2016-06-26T03:18:21.458Z,22.25
2016-06-26T03:19:22.083Z,22.25
2016-06-26T03:20:21.538Z,22.23
2016-06-26T03:21:22.142Z,22.2
2016-06-26T03:22:21.554Z,22.18
2016-06-26T03:23:22.199Z,22.22
2016-06-26T03:24:21.613Z,22.22
2016-06-26T03:25:22.268Z,22.11
2016-06-26T03:26:22.288Z,22.14
2016-06-26T03:27:21.686Z,22.11
2016-06-26T03:28:22.355Z,22.1
2016-06-26T03:29:22.365Z,22.2
2016-06-26T03:30:21.764Z,22.1
2016-06-26T03:31:22.427Z,22.11
2016-06-26T03:32:21.841Z,22.13
2016-06-26T03:33:22.470Z,22.2
2016-06-26T03:34:22.502Z,22.15
2016-06-26T03:35:22.534Z,22.02
2016-06-26T03:36:21.929Z,22.07
2016-06-26T03:37:22.593Z,22.2
2016-06-26T03:38:22.625Z,22
2016-06-26T03:39:22.019Z,22.04
2016-06-26T03:40:22.069Z,22.04
2016-06-26T03:41:22.705Z,21.99
2016-06-26T03:42:22.720Z,22.02
2016-06-26T03:43:22.747Z,21.95
2016-06-26T03:44:21.555Z,22.02
2016-06-26T03:45:22.822Z,22.06
2016-06-26T03:46:22.229Z,21.98
2016-06-26T03:47:22.261Z,21.99
2016-06-26T03:48:21.662Z,21.96
2016-06-26T03:49:22.925Z,22.02
2016-06-26T03:50:22.329Z,21.99
2016-06-26T03:51:22.977Z,21.95
2016-06-26T03:52:22.378Z,21.91
2016-06-26T03:53:22.408Z,21.92
2016-06-26T03:54:23.054Z,21.98
2016-06-26T03:55:22.464Z,21.91
2016-06-26T03:56:22.501Z,21.91
2016-06-26T03:57:22.524Z,21.96
2016-06-26T03:58:22.554Z,22
2016-06-26T03:59:22.573Z,21.93
2016-06-26T04:00:23.223Z,21.96
2016-06-26T04:01:22.646Z,21.96
2016-06-26T04:02:22.038Z,22
2016-06-26T04:03:22.071Z,21.98
2016-06-26T04:04:22.704Z,21.96
2016-06-26T04:05:22.734Z,21.96
2016-06-26T04:06:22.758Z,22
2016-06-26T04:07:22.166Z,22.02
2016-06-26T04:08:22.209Z,21.98
2016-06-26T04:09:22.839Z,21.95
2016-06-26T04:10:22.256Z,21.98
2016-06-26T04:11:22.897Z,22.02
2016-06-26T04:12:23.537Z,21.95
2016-06-26T04:13:23.570Z,21.96
2016-06-26T04:14:23.596Z,21.99
2016-06-26T04:15:22.385Z,21.99
2016-06-26T04:16:23.051Z,21.98
2016-06-26T04:17:23.682Z,21.99
2016-06-26T04:18:22.482Z,21.99
2016-06-26T04:19:23.135Z,21.98
2016-06-26T04:20:23.775Z,21.99
2016-06-26T04:21:23.186Z,22.02
2016-06-26T04:22:22.590Z,21.89
2016-06-26T04:23:23.239Z,21.98
2016-06-26T04:24:23.272Z,21.98
2016-06-26T04:25:23.933Z,21.98
2016-06-26T04:26:23.933Z,21.98
2016-06-26T04:27:23.342Z,21.98
2016-06-26T04:28:23.370Z,21.93
2016-06-26T04:29:23.403Z,22
2016-06-26T04:30:24.032Z,21.91
2016-06-26T04:31:24.059Z,21.99
2016-06-26T04:32:24.080Z,22.02
2016-06-26T04:33:22.897Z,21.95
2016-06-26T04:34:23.552Z,21.93
2016-06-26T04:35:22.966Z,21.98
2016-06-26T04:36:24.198Z,21.98
2016-06-26T04:37:23.622Z,21.95
2016-06-26T04:38:23.647Z,21.96
2016-06-26T04:39:23.650Z,21.99
2016-06-26T04:40:23.696Z,22.04
2016-06-26T04:41:24.343Z,21.99
2016-06-26T04:42:24.369Z,22.02
2016-06-26T04:43:23.186Z,22
2016-06-26T04:44:24.423Z,22
2016-06-26T04:45:23.218Z,22.04
2016-06-26T04:46:24.485Z,21.98
2016-06-26T04:47:23.895Z,21.98
2016-06-26T04:48:24.533Z,21.99
2016-06-26T04:49:24.546Z,22.02
2016-06-26T04:50:23.966Z,22
2016-06-26T04:51:24.024Z,22
2016-06-26T04:52:24.059Z,21.98
2016-06-26T04:53:24.049Z,22.02
2016-06-26T04:54:24.068Z,22.06
2016-06-26T04:55:24.103Z,22.07
2016-06-26T04:56:24.163Z,21.96
2016-06-26T04:57:24.150Z,22.02
2016-06-26T04:58:24.812Z,22.02
2016-06-26T04:59:24.223Z,22.02
2016-06-26T05:00:24.246Z,21.99
2016-06-26T05:01:24.955Z,22.04
2016-06-26T05:02:24.297Z,22.06
2016-06-26T05:03:23.702Z,22
2016-06-26T05:04:24.496Z,21.99
2016-06-26T05:05:25.114Z,21.98
2016-06-26T05:06:24.511Z,21.98
2016-06-26T05:07:23.807Z,21.98
2016-06-26T05:08:25.238Z,22
2016-06-26T05:09:23.867Z,21.96
2016-06-26T05:10:24.757Z,21.98
2016-06-26T05:11:25.149Z,21.95
2016-06-26T05:12:24.651Z,22.02
2016-06-26T05:13:24.602Z,21.98
2016-06-26T05:14:24.003Z,21.96
2016-06-26T05:15:24.700Z,21.95
2016-06-26T05:16:24.670Z,21.98
2016-06-26T05:17:25.347Z,21.95
2016-06-26T05:18:24.732Z,21.96
2016-06-26T05:19:24.169Z,21.98
2016-06-26T05:20:24.170Z,21.96
2016-06-26T05:21:24.877Z,21.92
2016-06-26T05:22:24.833Z,21.93
2016-06-26T05:23:25.473Z,21.91
2016-06-26T05:24:25.508Z,21.89
2016-06-26T05:25:25.651Z,21.89
2016-06-26T05:26:25.598Z,21.82
2016-06-26T05:27:24.990Z,21.89
2016-06-26T05:28:25.015Z,21.85
2016-06-26T05:29:25.025Z,21.83
2016-06-26T05:30:24.509Z,21.88
2016-06-26T05:31:25.713Z,21.82
2016-06-26T05:32:25.800Z,21.85
2016-06-26T05:33:25.233Z,21.91
2016-06-26T05:34:24.607Z,21.89
2016-06-26T05:35:25.880Z,21.82
2016-06-26T05:36:26.029Z,21.82
2016-06-26T05:37:25.262Z,21.91
2016-06-26T05:38:25.270Z,21.82
2016-06-26T05:39:25.919Z,21.83
2016-06-26T05:40:25.327Z,21.88
2016-06-26T05:41:25.355Z,21.82
2016-06-26T05:42:26.021Z,21.83
2016-06-26T05:43:26.030Z,21.98
2016-06-26T05:44:25.485Z,21.91
2016-06-26T05:45:26.084Z,21.98
2016-06-26T05:46:25.495Z,21.96
2016-06-26T05:47:26.143Z,22.02
2016-06-26T05:48:26.162Z,22.06
2016-06-26T05:49:26.199Z,22.02
2016-06-26T05:50:26.217Z,22.04
2016-06-26T05:51:25.628Z,22.06
2016-06-26T05:52:26.274Z,22.02
2016-06-26T05:53:26.314Z,21.99
2016-06-26T05:54:25.713Z,22.04
2016-06-26T05:55:26.358Z,22.06
2016-06-26T05:56:25.154Z,21.98
2016-06-26T05:57:25.786Z,22
2016-06-26T05:58:26.426Z,21.98
2016-06-26T05:59:25.834Z,21.99
2016-06-26T06:00:26.495Z,21.98
2016-06-26T06:01:25.887Z,21.96
2016-06-26T06:02:26.536Z,21.93
2016-06-26T06:03:25.963Z,22.02
2016-06-26T06:04:26.604Z,21.99
2016-06-26T06:05:25.410Z,22
2016-06-26T06:06:25.423Z,21.99
2016-06-26T06:07:26.063Z,21.98
2016-06-26T06:08:26.080Z,21.93
2016-06-26T06:09:26.730Z,21.98
2016-06-26T06:10:26.778Z,21.95
2016-06-26T06:11:26.170Z,21.99
2016-06-26T06:12:26.199Z,21.91
2016-06-26T06:13:26.224Z,21.91
2016-06-26T06:14:26.259Z,21.98
2016-06-26T06:15:26.279Z,21.93
2016-06-26T06:16:25.687Z,21.93
2016-06-26T06:17:26.336Z,21.96
2016-06-26T06:18:25.739Z,21.92
2016-06-26T06:19:27.238Z,21.92
2016-06-26T06:20:25.789Z,21.96
2016-06-26T06:21:26.452Z,21.92
2016-06-26T06:22:27.086Z,21.96
2016-06-26T06:23:27.128Z,21.93
2016-06-26T06:24:26.517Z,21.93
2016-06-26T06:25:26.557Z,21.96
2016-06-26T06:26:26.586Z,21.95
2016-06-26T06:27:27.211Z,21.88
2016-06-26T06:28:26.014Z,21.93
2016-06-26T06:29:26.686Z,21.91
2016-06-26T06:30:26.072Z,21.89
2016-06-26T06:31:27.344Z,21.93
2016-06-26T06:32:27.418Z,21.95
2016-06-26T06:33:26.152Z,21.99
2016-06-26T06:34:27.423Z,21.98
2016-06-26T06:35:26.822Z,22
2016-06-26T06:36:26.852Z,21.96
2016-06-26T06:37:27.501Z,21.93
2016-06-26T06:38:26.291Z,21.98
2016-06-26T06:39:26.935Z,21.96
2016-06-26T06:40:26.959Z,21.89
2016-06-26T06:41:27.650Z,21.93
2016-06-26T06:42:26.402Z,21.91
2016-06-26T06:43:26.429Z,21.99
2016-06-26T06:44:27.062Z,21.95
2016-06-26T06:45:27.097Z,21.93
2016-06-26T06:46:27.816Z,21.98
2016-06-26T06:47:26.556Z,21.92
2016-06-26T06:48:27.189Z,21.98
2016-06-26T06:49:26.567Z,21.95
2016-06-26T06:50:27.860Z,22.04
2016-06-26T06:51:27.247Z,21.98
2016-06-26T06:52:27.946Z,21.99
2016-06-26T06:53:27.914Z,22.02
2016-06-26T06:54:27.977Z,22.02
2016-06-26T06:55:27.368Z,22.04
2016-06-26T06:56:27.385Z,22.02
2016-06-26T06:57:27.411Z,21.98
2016-06-26T06:58:27.447Z,21.99
2016-06-26T06:59:26.834Z,21.95
2016-06-26T07:00:26.866Z,21.98
2016-06-26T07:01:26.917Z,21.93
2016-06-26T07:02:27.552Z,21.98
2016-06-26T07:03:28.190Z,22
2016-06-26T07:04:26.994Z,22.02
2016-06-26T07:05:27.641Z,22.02
2016-06-26T07:06:27.032Z,22.02
2016-06-26T07:07:27.677Z,22.07
2016-06-26T07:08:27.703Z,22.02
2016-06-26T07:09:27.733Z,22.04
2016-06-26T07:10:27.763Z,22.08
2016-06-26T07:11:27.838Z,22
2016-06-26T07:12:27.809Z,22.08
2016-06-26T07:13:27.233Z,22.17
2016-06-26T07:14:27.885Z,22.14
2016-06-26T07:15:27.281Z,22.14
2016-06-26T07:16:27.299Z,22.15
2016-06-26T07:17:28.571Z,22.15
2016-06-26T07:18:28.011Z,22.2
2016-06-26T07:19:27.382Z,22.23
2016-06-26T07:20:28.033Z,22.26
2016-06-26T07:21:28.063Z,22.23
2016-06-26T07:22:28.100Z,22.25
2016-06-26T07:23:28.725Z,22.29
2016-06-26T07:24:28.958Z,22.35
2016-06-26T07:25:28.782Z,22.41
2016-06-26T07:26:28.194Z,22.47
2016-06-26T07:27:27.602Z,22.53
2016-06-26T07:28:28.867Z,22.57
2016-06-26T07:29:28.288Z,22.53
2016-06-26T07:30:28.317Z,22.59
2016-06-26T07:31:28.949Z,22.63
2016-06-26T07:32:28.409Z,22.65
2016-06-26T07:33:28.403Z,22.7
2016-06-26T07:34:29.036Z,22.83
2016-06-26T07:35:28.436Z,22.83
2016-06-26T07:36:28.481Z,22.85
2016-06-26T07:37:28.497Z,22.84
2016-06-26T07:38:29.137Z,22.84
2016-06-26T07:39:27.930Z,22.87
2016-06-26T07:40:27.953Z,22.93
2016-06-26T07:41:29.214Z,23.02
2016-06-26T07:42:28.636Z,23.05
2016-06-26T07:43:29.294Z,23.02
2016-06-26T07:44:28.702Z,23.12
2016-06-26T07:45:29.326Z,23.2
2016-06-26T07:46:28.749Z,23.18
2016-06-26T07:47:29.379Z,23.21
2016-06-26T07:48:29.449Z,23.31
2016-06-26T07:49:29.451Z,23.28
2016-06-26T07:50:28.868Z,23.25
2016-06-26T07:51:28.280Z,23.41
2016-06-26T07:52:29.527Z,23.36
2016-06-26T07:53:28.928Z,23.37
2016-06-26T07:54:28.352Z,23.4
2016-06-26T07:55:28.378Z,23.44
2016-06-26T07:56:29.647Z,23.44
2016-06-26T07:57:28.434Z,23.54
2016-06-26T07:58:29.074Z,23.56
2016-06-26T07:59:29.095Z,23.65
2016-06-26T08:00:29.737Z,23.69
2016-06-26T08:01:29.872Z,23.81
2016-06-26T08:02:29.881Z,23.81
2016-06-26T08:03:29.853Z,23.81
2016-06-26T08:04:29.872Z,23.84
2016-06-26T08:05:29.263Z,23.87
2016-06-26T08:06:29.286Z,23.95
2016-06-26T08:07:29.317Z,23.99
2016-06-26T08:08:29.986Z,24.02
2016-06-26T08:09:29.373Z,24.17
2016-06-26T08:10:29.422Z,24.21
2016-06-26T08:11:29.539Z,24.21
2016-06-26T08:12:29.557Z,24.26
2016-06-26T08:13:30.170Z,24.29
2016-06-26T08:14:29.550Z,24.29
2016-06-26T08:15:30.212Z,24.33
2016-06-26T08:16:29.571Z,24.33
2016-06-26T08:17:29.596Z,24.47
2016-06-26T08:18:30.235Z,24.45
2016-06-26T08:19:29.030Z,24.4
2016-06-26T08:20:29.066Z,24.54
2016-06-26T08:21:29.723Z,24.5
2016-06-26T08:22:29.725Z,24.63
2016-06-26T08:23:29.147Z,24.58
2016-06-26T08:24:30.428Z,24.69
2016-06-26T08:25:29.823Z,24.73
2016-06-26T08:26:29.846Z,24.78
2016-06-26T08:27:29.263Z,24.69
2016-06-26T08:28:29.888Z,24.85
2016-06-26T08:29:30.583Z,24.86
2016-06-26T08:30:29.950Z,24.96
2016-06-26T08:31:30.635Z,24.99
2016-06-26T08:32:30.005Z,24.99
2016-06-26T08:33:30.033Z,25.04
2016-06-26T08:34:29.449Z,25.07
2016-06-26T08:35:30.093Z,25.08
2016-06-26T08:36:30.101Z,25.17
2016-06-26T08:37:30.158Z,25.1
2016-06-26T08:38:29.552Z,25.17
2016-06-26T08:39:30.207Z,25.23
2016-06-26T08:40:30.234Z,25.18
2016-06-26T08:41:30.251Z,25.23
2016-06-26T08:42:30.934Z,25.23
2016-06-26T08:43:30.937Z,25.26
2016-06-26T08:44:30.359Z,25.35
2016-06-26T08:45:30.367Z,25.33
2016-06-26T08:46:31.031Z,25.35
2016-06-26T08:47:31.050Z,25.5
2016-06-26T08:48:30.476Z,25.46
2016-06-26T08:49:30.482Z,25.55
2016-06-26T08:50:30.518Z,25.6
2016-06-26T08:51:31.147Z,25.59
2016-06-26T08:52:30.572Z,25.54
2016-06-26T08:53:31.230Z,25.65
2016-06-26T08:54:30.623Z,25.66
2016-06-26T08:55:30.639Z,25.73
2016-06-26T08:56:30.669Z,25.7
2016-06-26T08:57:31.327Z,25.72
2016-06-26T08:58:31.374Z,25.83
2016-06-26T08:59:30.146Z,25.96
2016-06-26T09:00:30.179Z,25.96
2016-06-26T09:01:31.447Z,26.07
2016-06-26T09:02:30.862Z,26.16
2016-06-26T09:03:30.893Z,26.1
2016-06-26T09:04:30.906Z,26.26
2016-06-26T09:05:30.929Z,26.34
2016-06-26T09:06:31.630Z,26.45
2016-06-26T09:07:30.431Z,26.47
2016-06-26T09:08:31.030Z,26.55
2016-06-26T09:09:31.058Z,26.65
2016-06-26T09:10:31.722Z,26.65
2016-06-26T09:11:31.720Z,26.73
2016-06-26T09:12:30.517Z,26.74
2016-06-26T09:13:30.557Z,26.75
2016-06-26T09:14:31.813Z,26.88
2016-06-26T09:15:31.217Z,26.9
2016-06-26T09:16:31.262Z,27.02
2016-06-26T09:17:30.689Z,27.1
2016-06-26T09:18:31.310Z,27.05
2016-06-26T09:19:32.111Z,27.21
2016-06-26T09:20:31.368Z,27.25
2016-06-26T09:21:32.087Z,27.32
2016-06-26T09:22:32.090Z,27.4
2016-06-26T09:23:31.476Z,27.48
2016-06-26T09:24:30.887Z,27.49
2016-06-26T09:25:31.507Z,27.6
2016-06-26T09:26:31.571Z,27.63
2016-06-26T09:27:31.593Z,27.63
2016-06-26T09:28:31.615Z,27.67
2016-06-26T09:29:32.259Z,27.74
2016-06-26T09:30:32.280Z,27.85
2016-06-26T09:31:31.082Z,28
2016-06-26T09:32:31.847Z,28.07
2016-06-26T09:33:31.876Z,28.02
2016-06-26T09:34:31.862Z,28.12
2016-06-26T09:35:32.645Z,28.19
2016-06-26T09:36:32.517Z,28.27
2016-06-26T09:37:31.930Z,28.35
2016-06-26T09:38:31.940Z,28.32
2016-06-26T09:39:31.938Z,28.45
2016-06-26T09:40:31.960Z,28.54
2016-06-26T09:41:32.090Z,28.45
2016-06-26T09:42:32.131Z,28.56
2016-06-26T09:43:32.135Z,28.62
2016-06-26T09:44:32.176Z,28.78
2016-06-26T09:45:32.786Z,28.78
2016-06-26T09:46:32.192Z,28.81
2016-06-26T09:47:32.247Z,28.81
2016-06-26T09:48:32.917Z,28.88
2016-06-26T09:49:32.229Z,28.88
2016-06-26T09:50:32.303Z,28.86
2016-06-26T09:51:32.303Z,28.93
2016-06-26T09:52:31.717Z,28.94
2016-06-26T09:53:32.355Z,28.94
2016-06-26T09:54:31.848Z,29.01
2016-06-26T09:55:33.048Z,29.01
2016-06-26T09:56:32.456Z,29.1
2016-06-26T09:57:32.615Z,29.17
2016-06-26T09:58:33.122Z,29.23
2016-06-26T09:59:32.516Z,29.35
2016-06-26T10:00:32.642Z,29.36
2016-06-26T10:01:32.666Z,29.35
2016-06-26T10:02:32.792Z,29.39
2016-06-26T10:03:33.279Z,29.47
2016-06-26T10:04:32.704Z,29.51
2016-06-26T10:05:33.333Z,29.57
2016-06-26T10:06:32.797Z,29.6
2016-06-26T10:07:32.788Z,29.65
2016-06-26T10:08:33.431Z,29.72
2016-06-26T10:09:33.470Z,29.76
2016-06-26T10:10:32.878Z,29.82
2016-06-26T10:11:32.917Z,29.79
2016-06-26T10:12:32.934Z,29.81
2016-06-26T10:13:33.035Z,29.82
2016-06-26T10:14:33.180Z,29.93
2016-06-26T10:15:33.071Z,30
2016-06-26T10:16:32.469Z,30.02
2016-06-26T10:17:33.191Z,30.03
2016-06-26T10:18:32.511Z,30.13
2016-06-26T10:19:32.554Z,30.08
2016-06-26T10:20:33.833Z,30.03
2016-06-26T10:21:33.870Z,30.15
2016-06-26T10:22:32.630Z,30.21
2016-06-26T10:23:33.292Z,30.13
2016-06-26T10:24:33.923Z,30.31
2016-06-26T10:25:33.345Z,30.32
2016-06-26T10:26:33.419Z,30.27
2016-06-26T10:27:34.031Z,30.25
2016-06-26T10:28:33.464Z,30.24
2016-06-26T10:29:33.042Z,30.3
2016-06-26T10:30:33.512Z,30.37
2016-06-26T10:31:34.153Z,30.43
2016-06-26T10:32:33.725Z,30.4
2016-06-26T10:33:33.728Z,30.5
2016-06-26T10:34:34.233Z,30.46
2016-06-26T10:35:33.674Z,30.48
2016-06-26T10:36:33.772Z,30.47
2016-06-26T10:37:33.206Z,30.5
2016-06-26T10:38:33.769Z,30.47
2016-06-26T10:39:33.254Z,30.62
2016-06-26T10:40:34.586Z,30.55
2016-06-26T10:41:33.934Z,30.63
2016-06-26T10:42:33.265Z,30.69
2016-06-26T10:43:34.098Z,30.8
2016-06-26T10:44:34.723Z,30.87
2016-06-26T10:45:34.730Z,30.87
2016-06-26T10:46:34.745Z,30.92
2016-06-26T10:47:33.424Z,31.03
2016-06-26T10:48:34.751Z,30.99
2016-06-26T10:49:34.138Z,31.12
2016-06-26T10:50:34.214Z,31.12
2016-06-26T10:51:34.227Z,31.14
2016-06-26T10:52:34.210Z,31.15
2016-06-26T10:53:34.251Z,31.07
2016-06-26T10:54:34.254Z,31.14
2016-06-26T10:55:34.390Z,31.09
2016-06-26T10:56:34.942Z,31.2
2016-06-26T10:57:33.975Z,31.22
2016-06-26T10:58:34.592Z,31.29
2016-06-26T10:59:33.960Z,31.27
2016-06-26T11:00:35.079Z,31.37
2016-06-26T11:01:34.494Z,31.47
2016-06-26T11:02:34.513Z,31.43
2016-06-26T11:03:34.610Z,31.54
2016-06-26T11:04:34.137Z,31.62
2016-06-26T11:05:34.625Z,31.73
2016-06-26T11:06:34.747Z,31.8
2016-06-26T11:07:35.291Z,31.92
2016-06-26T11:08:34.169Z,32
2016-06-26T11:09:34.175Z,31.99
2016-06-26T11:10:34.190Z,32.03
2016-06-26T11:11:35.435Z,32.19
2016-06-26T11:12:34.847Z,32.15
2016-06-26T11:13:35.498Z,32.29
2016-06-26T11:14:34.990Z,32.34
2016-06-26T11:15:35.026Z,32.33
2016-06-26T11:16:35.605Z,32.49
2016-06-26T11:17:35.645Z,32.41
2016-06-26T11:18:35.688Z,32.56
2016-06-26T11:19:35.074Z,32.67
2016-06-26T11:20:35.101Z,32.7
2016-06-26T11:21:34.534Z,32.82
2016-06-26T11:22:34.561Z,32.85
2016-06-26T11:23:35.194Z,33.05
2016-06-26T11:24:36.105Z,33.02
2016-06-26T11:25:35.357Z,33.17
2016-06-26T11:26:36.029Z,33.32
2016-06-26T11:27:35.344Z,33.42
2016-06-26T11:28:35.378Z,33.43
2016-06-26T11:29:35.411Z,33.46
2016-06-26T11:30:35.450Z,33.58
2016-06-26T11:31:35.477Z,33.67
2016-06-26T11:32:34.882Z,33.71
2016-06-26T11:33:35.541Z,33.74
2016-06-26T11:34:34.950Z,33.76
2016-06-26T11:35:36.220Z,33.69
2016-06-26T11:36:35.653Z,33.76
2016-06-26T11:37:35.678Z,33.81
2016-06-26T11:38:35.748Z,33.84
2016-06-26T11:39:36.365Z,33.84
2016-06-26T11:40:35.156Z,33.79
2016-06-26T11:41:36.471Z,33.79
2016-06-26T11:42:35.858Z,33.84
2016-06-26T11:43:35.508Z,33.81
2016-06-26T11:44:35.914Z,34.01
2016-06-26T11:45:36.568Z,33.94
2016-06-26T11:46:36.592Z,33.92
2016-06-26T11:47:36.029Z,33.99
2016-06-26T11:48:35.454Z,34.08
2016-06-26T11:49:35.466Z,34.05
2016-06-26T11:50:36.118Z,34.17
2016-06-26T11:51:36.810Z,34.18
2016-06-26T11:52:36.185Z,34.13
2016-06-26T11:53:36.846Z,34.14
2016-06-26T11:54:36.860Z,34.14
2016-06-26T11:55:36.910Z,34.3
2016-06-26T11:56:36.318Z,34.21
2016-06-26T11:57:36.989Z,34.4
2016-06-26T11:58:36.998Z,34.45
2016-06-26T11:59:36.417Z,34.42
2016-06-26T12:00:36.445Z,34.57
2016-06-26T12:01:36.484Z,34.51
2016-06-26T12:02:36.577Z,34.51
2016-06-26T12:03:36.584Z,34.57
2016-06-26T12:04:36.605Z,34.55
2016-06-26T12:05:36.007Z,34.52
2016-06-26T12:06:36.681Z,34.57
2016-06-26T12:07:36.767Z,34.6
2016-06-26T12:08:36.741Z,34.6
2016-06-26T12:09:36.960Z,34.66
2016-06-26T12:10:36.826Z,34.62
2016-06-26T12:11:36.849Z,34.7
2016-06-26T12:12:37.085Z,34.67
2016-06-26T12:13:36.914Z,34.81
2016-06-26T12:14:36.951Z,34.83
2016-06-26T12:15:37.599Z,34.99
2016-06-26T12:16:37.029Z,35.05
2016-06-26T12:17:37.063Z,35.11
2016-06-26T12:18:37.073Z,35.22
2016-06-26T12:19:37.113Z,35.23
2016-06-26T12:20:36.534Z,35.33
2016-06-26T12:21:37.183Z,35.49
2016-06-26T12:22:36.639Z,35.56
2016-06-26T12:23:37.251Z,35.56
2016-06-26T12:24:37.295Z,35.67
2016-06-26T12:25:37.951Z,35.76
2016-06-26T12:26:37.981Z,35.79
2016-06-26T12:27:36.775Z,35.85
2016-06-26T12:28:38.077Z,35.86
2016-06-26T12:29:38.122Z,35.88
2016-06-26T12:30:37.497Z,35.93
2016-06-26T12:31:37.528Z,35.83
2016-06-26T12:32:37.586Z,35.92
2016-06-26T12:33:37.011Z,35.95
2016-06-26T12:34:37.637Z,35.89
2016-06-26T12:35:37.687Z,35.86
2016-06-26T12:36:37.725Z,35.88
2016-06-26T12:37:38.368Z,35.86
2016-06-26T12:38:38.404Z,35.97
2016-06-26T12:39:37.831Z,35.86
2016-06-26T12:40:37.859Z,35.98
2016-06-26T12:41:37.890Z,35.97
2016-06-26T12:42:38.550Z,36.05
2016-06-26T12:43:38.176Z,36.04
2016-06-26T12:44:38.646Z,36.08
2016-06-26T12:45:37.415Z,36.12
2016-06-26T12:46:38.085Z,36.07
2016-06-26T12:47:38.115Z,36.09
2016-06-26T12:48:38.791Z,36.07
2016-06-26T12:49:38.810Z,36.2
2016-06-26T12:50:38.220Z,36.3
2016-06-26T12:51:38.281Z,36.31
2016-06-26T12:52:38.293Z,36.37
2016-06-26T12:53:38.955Z,36.33
2016-06-26T12:54:38.394Z,36.39
2016-06-26T12:55:39.017Z,36.3
2016-06-26T12:56:38.439Z,36.3